sensor_id;sensor_type;location;lat;lon;timestamp;temperature;humidity
5683;DHT22;2864;49.220;8.654;2023-08-20T00:05:01;22.80;99.90
5683;DHT22;2864;49.220;8.654;2023-08-20T00:07:30;22.70;99.90
5683;DHT22;2864;49.220;8.654;2023-08-20T00:09:56;22.70;99.90
5683;DHT22;2864;49.220;8.654;2023-08-20T00:12:21;22.60;99.90
5683;DHT22;2864;49.220;8.654;2023-08-20T00:14:58;22.50;99.90
5683;DHT22;2864;49.220;8.654;2023-08-20T00:17:30;22.50;99.90
5683;DHT22;2864;49.220;8.654;2023-08-20T00:19:56;22.40;99.90
5683;DHT22;2864;49.220;8.654;2023-08-20T00:22:23;22.40;99.90
5683;DHT22;2864;49.220;8.654;2023-08-20T00:24:51;22.30;99.90
5683;DHT22;2864;49.220;8.654;2023-08-20T00:27:17;22.30;99.90
5683;DHT22;2864;49.220;8.654;2023-08-20T00:29:43;22.30;99.90
5683;DHT22;2864;49.220;8.654;2023-08-20T00:32:09;22.30;99.90
5683;DHT22;2864;49.220;8.654;2023-08-20T00:34:34;22.20;99.90
5683;DHT22;2864;49.220;8.654;2023-08-20T00:37:01;22.20;99.90
5683;DHT22;2864;49.220;8.654;2023-08-20T00:39:27;22.20;99.90
5683;DHT22;2864;49.220;8.654;2023-08-20T00:41:53;22.20;99.90
5683;DHT22;2864;49.220;8.654;2023-08-20T00:44:18;22.20;99.90
5683;DHT22;2864;49.220;8.654;2023-08-20T00:46:44;22.10;99.90
5683;DHT22;2864;49.220;8.654;2023-08-20T00:49:10;22.10;99.90
5683;DHT22;2864;49.220;8.654;2023-08-20T00:51:36;22.20;99.90
5683;DHT22;2864;49.220;8.654;2023-08-20T00:54:03;22.10;99.90
5683;DHT22;2864;49.220;8.654;2023-08-20T00:56:29;22.10;99.90
5683;DHT22;2864;49.220;8.654;2023-08-20T00:58:55;22.20;99.90
5683;DHT22;2864;49.220;8.654;2023-08-20T01:01:24;22.20;99.90
5683;DHT22;2864;49.220;8.654;2023-08-20T01:03:50;22.20;99.90
5683;DHT22;2864;49.220;8.654;2023-08-20T01:08:46;22.30;99.90
5683;DHT22;2864;49.220;8.654;2023-08-20T01:11:17;22.30;99.90
5683;DHT22;2864;49.220;8.654;2023-08-20T01:13:45;22.40;99.90
5683;DHT22;2864;49.220;8.654;2023-08-20T01:16:11;22.30;99.90
5683;DHT22;2864;49.220;8.654;2023-08-20T01:18:36;22.30;99.90
5683;DHT22;2864;49.220;8.654;2023-08-20T01:21:23;22.40;99.90
5683;DHT22;2864;49.220;8.654;2023-08-20T01:29:21;22.20;99.90
5683;DHT22;2864;49.220;8.654;2023-08-20T01:31:47;22.20;99.90
5683;DHT22;2864;49.220;8.654;2023-08-20T01:34:13;22.10;99.90
5683;DHT22;2864;49.220;8.654;2023-08-20T01:36:38;22.40;99.90
5683;DHT22;2864;49.220;8.654;2023-08-20T01:39:04;22.70;99.90
5683;DHT22;2864;49.220;8.654;2023-08-20T01:41:30;22.10;99.90
5683;DHT22;2864;49.220;8.654;2023-08-20T01:43:56;22.30;99.90
5683;DHT22;2864;49.220;8.654;2023-08-20T01:46:22;22.60;99.90
5683;DHT22;2864;49.220;8.654;2023-08-20T01:48:47;22.90;99.90
5683;DHT22;2864;49.220;8.654;2023-08-20T01:51:13;22.00;99.90
5683;DHT22;2864;49.220;8.654;2023-08-20T01:53:38;22.40;99.90
5683;DHT22;2864;49.220;8.654;2023-08-20T01:56:04;21.80;99.90
5683;DHT22;2864;49.220;8.654;2023-08-20T01:58:36;22.00;99.90
5683;DHT22;2864;49.220;8.654;2023-08-20T02:01:01;21.70;99.90
5683;DHT22;2864;49.220;8.654;2023-08-20T02:03:27;21.70;99.90
5683;DHT22;2864;49.220;8.654;2023-08-20T02:05:52;21.60;99.90
5683;DHT22;2864;49.220;8.654;2023-08-20T02:08:18;23.20;99.90
5683;DHT22;2864;49.220;8.654;2023-08-20T02:10:43;22.90;99.90
5683;DHT22;2864;49.220;8.654;2023-08-20T02:13:09;22.90;99.90
5683;DHT22;2864;49.220;8.654;2023-08-20T02:15:34;22.10;99.90
5683;DHT22;2864;49.220;8.654;2023-08-20T02:18:00;22.30;99.90
5683;DHT22;2864;49.220;8.654;2023-08-20T02:20:26;22.30;99.90
5683;DHT22;2864;49.220;8.654;2023-08-20T02:22:52;21.20;99.90
5683;DHT22;2864;49.220;8.654;2023-08-20T02:25:17;22.70;99.90
5683;DHT22;2864;49.220;8.654;2023-08-20T02:27:43;21.10;99.90
5683;DHT22;2864;49.220;8.654;2023-08-20T02:30:09;21.10;99.90
5683;DHT22;2864;49.220;8.654;2023-08-20T02:32:35;21.10;99.90
5683;DHT22;2864;49.220;8.654;2023-08-20T02:35:00;21.80;99.90
5683;DHT22;2864;49.220;8.654;2023-08-20T02:37:26;22.20;99.90
5683;DHT22;2864;49.220;8.654;2023-08-20T02:39:51;22.10;99.90
5683;DHT22;2864;49.220;8.654;2023-08-20T02:42:17;20.90;99.90
5683;DHT22;2864;49.220;8.654;2023-08-20T02:44:42;20.90;99.90
5683;DHT22;2864;49.220;8.654;2023-08-20T02:47:08;22.40;99.90
5683;DHT22;2864;49.220;8.654;2023-08-20T02:49:34;21.40;99.90
5683;DHT22;2864;49.220;8.654;2023-08-20T02:51:59;22.30;99.90
5683;DHT22;2864;49.220;8.654;2023-08-20T02:54:25;22.20;99.90
5683;DHT22;2864;49.220;8.654;2023-08-20T02:56:51;22.50;99.90
5683;DHT22;2864;49.220;8.654;2023-08-20T02:59:16;20.80;99.90
5683;DHT22;2864;49.220;8.654;2023-08-20T03:01:42;20.60;99.90
5683;DHT22;2864;49.220;8.654;2023-08-20T03:04:07;22.30;99.90
5683;DHT22;2864;49.220;8.654;2023-08-20T03:06:33;22.60;99.90
5683;DHT22;2864;49.220;8.654;2023-08-20T03:08:58;20.70;99.90
5683;DHT22;2864;49.220;8.654;2023-08-20T03:11:24;21.60;99.90
5683;DHT22;2864;49.220;8.654;2023-08-20T03:13:49;20.60;99.90
5683;DHT22;2864;49.220;8.654;2023-08-20T03:16:15;20.50;99.90
5683;DHT22;2864;49.220;8.654;2023-08-20T03:18:40;21.10;99.90
5683;DHT22;2864;49.220;8.654;2023-08-20T03:21:06;21.30;99.90
5683;DHT22;2864;49.220;8.654;2023-08-20T03:23:32;20.40;99.90
5683;DHT22;2864;49.220;8.654;2023-08-20T03:25:58;21.70;99.90
5683;DHT22;2864;49.220;8.654;2023-08-20T03:28:24;21.50;99.90
5683;DHT22;2864;49.220;8.654;2023-08-20T03:30:49;21.40;99.90
5683;DHT22;2864;49.220;8.654;2023-08-20T03:33:15;20.90;99.90
5683;DHT22;2864;49.220;8.654;2023-08-20T03:35:42;20.30;99.90
5683;DHT22;2864;49.220;8.654;2023-08-20T03:38:08;21.50;99.90
5683;DHT22;2864;49.220;8.654;2023-08-20T03:40:33;20.20;99.90
5683;DHT22;2864;49.220;8.654;2023-08-20T03:42:59;21.10;99.90
5683;DHT22;2864;49.220;8.654;2023-08-20T03:45:25;21.60;99.90
5683;DHT22;2864;49.220;8.654;2023-08-20T03:47:50;21.30;99.90
5683;DHT22;2864;49.220;8.654;2023-08-20T03:50:16;20.10;99.90
5683;DHT22;2864;49.220;8.654;2023-08-20T03:52:42;20.10;99.90
5683;DHT22;2864;49.220;8.654;2023-08-20T03:55:08;20.20;99.90
5683;DHT22;2864;49.220;8.654;2023-08-20T03:57:33;20.00;99.90
5683;DHT22;2864;49.220;8.654;2023-08-20T03:59:59;19.20;99.90
5683;DHT22;2864;49.220;8.654;2023-08-20T04:02:24;20.00;99.90
5683;DHT22;2864;49.220;8.654;2023-08-20T04:04:50;20.40;99.90
5683;DHT22;2864;49.220;8.654;2023-08-20T04:07:15;21.20;99.90
5683;DHT22;2864;49.220;8.654;2023-08-20T04:09:41;21.50;99.90
5683;DHT22;2864;49.220;8.654;2023-08-20T04:12:08;21.60;99.90
5683;DHT22;2864;49.220;8.654;2023-08-20T04:14:34;20.00;99.90
5683;DHT22;2864;49.220;8.654;2023-08-20T04:16:59;20.80;99.90
5683;DHT22;2864;49.220;8.654;2023-08-20T04:19:25;20.00;99.90
5683;DHT22;2864;49.220;8.654;2023-08-20T04:21:50;18.70;99.90
5683;DHT22;2864;49.220;8.654;2023-08-20T04:24:16;19.90;99.90
5683;DHT22;2864;49.220;8.654;2023-08-20T04:26:42;19.90;99.90
5683;DHT22;2864;49.220;8.654;2023-08-20T04:29:09;19.90;99.90
5683;DHT22;2864;49.220;8.654;2023-08-20T04:31:34;19.90;99.90
5683;DHT22;2864;49.220;8.654;2023-08-20T04:34:00;20.10;99.90
5683;DHT22;2864;49.220;8.654;2023-08-20T04:36:26;20.00;99.90
5683;DHT22;2864;49.220;8.654;2023-08-20T04:38:51;19.90;99.90
5683;DHT22;2864;49.220;8.654;2023-08-20T04:41:17;20.00;99.90
5683;DHT22;2864;49.220;8.654;2023-08-20T04:43:43;19.80;99.90
5683;DHT22;2864;49.220;8.654;2023-08-20T04:46:08;20.00;99.90
5683;DHT22;2864;49.220;8.654;2023-08-20T04:48:34;20.60;99.90
5683;DHT22;2864;49.220;8.654;2023-08-20T04:50:59;20.10;99.90
5683;DHT22;2864;49.220;8.654;2023-08-20T04:53:25;19.80;99.90
5683;DHT22;2864;49.220;8.654;2023-08-20T04:55:51;20.50;99.90
5683;DHT22;2864;49.220;8.654;2023-08-20T04:58:17;21.80;99.90
5683;DHT22;2864;49.220;8.654;2023-08-20T05:00:42;20.40;99.90
5683;DHT22;2864;49.220;8.654;2023-08-20T05:03:08;20.50;99.90
5683;DHT22;2864;49.220;8.654;2023-08-20T05:05:33;20.60;99.90
5683;DHT22;2864;49.220;8.654;2023-08-20T05:07:59;20.80;99.90
5683;DHT22;2864;49.220;8.654;2023-08-20T05:10:24;21.60;99.90
5683;DHT22;2864;49.220;8.654;2023-08-20T05:12:50;21.30;99.90
5683;DHT22;2864;49.220;8.654;2023-08-20T05:15:16;20.90;99.90
5683;DHT22;2864;49.220;8.654;2023-08-20T05:17:42;21.80;99.90
5683;DHT22;2864;49.220;8.654;2023-08-20T05:20:07;21.00;99.90
5683;DHT22;2864;49.220;8.654;2023-08-20T05:22:34;21.00;99.90
5683;DHT22;2864;49.220;8.654;2023-08-20T05:25:00;22.00;99.90
5683;DHT22;2864;49.220;8.654;2023-08-20T05:27:25;22.10;99.90
5683;DHT22;2864;49.220;8.654;2023-08-20T05:29:51;20.90;99.90
5683;DHT22;2864;49.220;8.654;2023-08-20T05:32:16;21.30;99.90
5683;DHT22;2864;49.220;8.654;2023-08-20T05:34:42;21.30;99.90
5683;DHT22;2864;49.220;8.654;2023-08-20T05:37:07;21.40;99.90
5683;DHT22;2864;49.220;8.654;2023-08-20T05:39:41;22.30;99.90
5683;DHT22;2864;49.220;8.654;2023-08-20T05:42:06;23.10;99.90
5683;DHT22;2864;49.220;8.654;2023-08-20T05:44:32;22.20;99.90
5683;DHT22;2864;49.220;8.654;2023-08-20T05:46:58;23.10;99.90
5683;DHT22;2864;49.220;8.654;2023-08-20T05:49:24;22.20;99.90
5683;DHT22;2864;49.220;8.654;2023-08-20T05:51:49;22.30;99.90
5683;DHT22;2864;49.220;8.654;2023-08-20T05:54:15;22.50;99.90
5683;DHT22;2864;49.220;8.654;2023-08-20T05:56:40;23.90;99.90
5683;DHT22;2864;49.220;8.654;2023-08-20T05:59:06;23.00;99.90
5683;DHT22;2864;49.220;8.654;2023-08-20T06:01:31;24.60;99.90
5683;DHT22;2864;49.220;8.654;2023-08-20T06:03:57;24.30;99.90
5683;DHT22;2864;49.220;8.654;2023-08-20T06:06:23;24.10;99.90
5683;DHT22;2864;49.220;8.654;2023-08-20T06:08:48;23.50;99.90
5683;DHT22;2864;49.220;8.654;2023-08-20T06:11:14;23.10;99.90
5683;DHT22;2864;49.220;8.654;2023-08-20T06:13:39;24.40;99.90
5683;DHT22;2864;49.220;8.654;2023-08-20T06:16:06;23.30;99.90
5683;DHT22;2864;49.220;8.654;2023-08-20T06:18:32;22.90;99.90
5683;DHT22;2864;49.220;8.654;2023-08-20T06:20:57;23.10;99.90
5683;DHT22;2864;49.220;8.654;2023-08-20T06:23:23;23.10;99.90
5683;DHT22;2864;49.220;8.654;2023-08-20T06:25:50;23.10;99.90
5683;DHT22;2864;49.220;8.654;2023-08-20T06:28:16;23.30;99.90
5683;DHT22;2864;49.220;8.654;2023-08-20T06:30:42;23.80;99.90
5683;DHT22;2864;49.220;8.654;2023-08-20T06:33:08;23.20;99.90
5683;DHT22;2864;49.220;8.654;2023-08-20T06:35:37;23.30;99.90
5683;DHT22;2864;49.220;8.654;2023-08-20T06:38:03;23.40;99.90
5683;DHT22;2864;49.220;8.654;2023-08-20T06:40:29;23.40;99.90
5683;DHT22;2864;49.220;8.654;2023-08-20T06:42:55;23.50;99.90
5683;DHT22;2864;49.220;8.654;2023-08-20T06:45:20;24.00;99.90
5683;DHT22;2864;49.220;8.654;2023-08-20T06:47:46;24.10;99.90
5683;DHT22;2864;49.220;8.654;2023-08-20T06:50:11;23.30;99.90
5683;DHT22;2864;49.220;8.654;2023-08-20T06:52:37;23.40;99.90
5683;DHT22;2864;49.220;8.654;2023-08-20T06:55:03;23.40;99.90
5683;DHT22;2864;49.220;8.654;2023-08-20T06:57:29;23.50;99.90
5683;DHT22;2864;49.220;8.654;2023-08-20T06:59:55;23.60;99.90
5683;DHT22;2864;49.220;8.654;2023-08-20T07:02:20;24.70;99.90
5683;DHT22;2864;49.220;8.654;2023-08-20T07:04:46;24.30;99.90
5683;DHT22;2864;49.220;8.654;2023-08-20T07:07:12;24.00;99.90
5683;DHT22;2864;49.220;8.654;2023-08-20T07:09:37;24.20;99.90
5683;DHT22;2864;49.220;8.654;2023-08-20T07:12:05;25.90;99.90
5683;DHT22;2864;49.220;8.654;2023-08-20T07:14:30;24.60;99.90
5683;DHT22;2864;49.220;8.654;2023-08-20T07:16:56;24.70;99.90
5683;DHT22;2864;49.220;8.654;2023-08-20T07:19:21;24.80;99.90
5683;DHT22;2864;49.220;8.654;2023-08-20T07:21:47;25.00;99.90
5683;DHT22;2864;49.220;8.654;2023-08-20T07:24:13;26.20;99.90
5683;DHT22;2864;49.220;8.654;2023-08-20T07:26:38;25.50;99.90
5683;DHT22;2864;49.220;8.654;2023-08-20T07:29:04;25.50;99.90
5683;DHT22;2864;49.220;8.654;2023-08-20T07:31:32;26.30;99.90
5683;DHT22;2864;49.220;8.654;2023-08-20T07:33:59;25.80;99.90
5683;DHT22;2864;49.220;8.654;2023-08-20T07:36:26;25.90;99.90
5683;DHT22;2864;49.220;8.654;2023-08-20T07:38:53;26.50;99.90
5683;DHT22;2864;49.220;8.654;2023-08-20T07:41:19;26.20;99.90
5683;DHT22;2864;49.220;8.654;2023-08-20T07:43:45;26.50;99.90
5683;DHT22;2864;49.220;8.654;2023-08-20T07:46:11;26.50;99.90
5683;DHT22;2864;49.220;8.654;2023-08-20T07:48:37;26.50;99.90
5683;DHT22;2864;49.220;8.654;2023-08-20T07:51:03;26.70;99.90
5683;DHT22;2864;49.220;8.654;2023-08-20T07:53:29;26.90;99.90
5683;DHT22;2864;49.220;8.654;2023-08-20T07:55:55;27.00;99.90
5683;DHT22;2864;49.220;8.654;2023-08-20T07:58:20;27.10;99.90
5683;DHT22;2864;49.220;8.654;2023-08-20T08:00:46;27.20;99.90
5683;DHT22;2864;49.220;8.654;2023-08-20T08:03:12;27.00;99.90
5683;DHT22;2864;49.220;8.654;2023-08-20T08:05:46;27.00;99.90
5683;DHT22;2864;49.220;8.654;2023-08-20T08:08:12;27.10;99.90
5683;DHT22;2864;49.220;8.654;2023-08-20T08:10:37;27.10;99.90
5683;DHT22;2864;49.220;8.654;2023-08-20T08:13:03;27.30;99.90
5683;DHT22;2864;49.220;8.654;2023-08-20T08:15:29;26.80;99.90
5683;DHT22;2864;49.220;8.654;2023-08-20T08:17:54;27.10;99.90
5683;DHT22;2864;49.220;8.654;2023-08-20T08:20:20;26.80;99.90
5683;DHT22;2864;49.220;8.654;2023-08-20T08:22:45;26.50;99.90
5683;DHT22;2864;49.220;8.654;2023-08-20T08:25:11;26.50;99.90
5683;DHT22;2864;49.220;8.654;2023-08-20T08:27:36;26.70;99.90
5683;DHT22;2864;49.220;8.654;2023-08-20T08:30:02;26.70;99.90
5683;DHT22;2864;49.220;8.654;2023-08-20T08:32:28;26.70;99.90
5683;DHT22;2864;49.220;8.654;2023-08-20T08:34:54;26.70;99.90
5683;DHT22;2864;49.220;8.654;2023-08-20T08:37:19;26.80;99.90
5683;DHT22;2864;49.220;8.654;2023-08-20T08:39:45;27.10;99.90
5683;DHT22;2864;49.220;8.654;2023-08-20T08:42:11;27.50;99.90
5683;DHT22;2864;49.220;8.654;2023-08-20T08:44:37;27.40;99.90
5683;DHT22;2864;49.220;8.654;2023-08-20T08:47:03;27.50;99.90
5683;DHT22;2864;49.220;8.654;2023-08-20T08:49:33;27.50;99.90
5683;DHT22;2864;49.220;8.654;2023-08-20T08:51:59;27.60;99.90
5683;DHT22;2864;49.220;8.654;2023-08-20T08:54:26;27.70;99.90
5683;DHT22;2864;49.220;8.654;2023-08-20T08:56:52;28.10;99.90
5683;DHT22;2864;49.220;8.654;2023-08-20T08:59:18;27.70;99.90
5683;DHT22;2864;49.220;8.654;2023-08-20T09:01:44;27.80;99.90
5683;DHT22;2864;49.220;8.654;2023-08-20T09:04:09;27.90;99.90
5683;DHT22;2864;49.220;8.654;2023-08-20T09:06:47;28.00;99.90
5683;DHT22;2864;49.220;8.654;2023-08-20T09:09:13;28.40;99.90
5683;DHT22;2864;49.220;8.654;2023-08-20T09:11:38;28.40;99.90
5683;DHT22;2864;49.220;8.654;2023-08-20T09:14:04;28.50;99.90
5683;DHT22;2864;49.220;8.654;2023-08-20T09:16:30;28.70;99.90
5683;DHT22;2864;49.220;8.654;2023-08-20T09:18:59;28.80;99.90
5683;DHT22;2864;49.220;8.654;2023-08-20T09:21:27;28.80;99.90
5683;DHT22;2864;49.220;8.654;2023-08-20T09:23:55;28.90;99.90
5683;DHT22;2864;49.220;8.654;2023-08-20T09:26:22;28.90;99.90
5683;DHT22;2864;49.220;8.654;2023-08-20T09:28:47;29.10;99.90
5683;DHT22;2864;49.220;8.654;2023-08-20T09:31:14;29.00;99.90
5683;DHT22;2864;49.220;8.654;2023-08-20T09:33:52;29.20;99.90
5683;DHT22;2864;49.220;8.654;2023-08-20T09:36:28;29.20;99.90
5683;DHT22;2864;49.220;8.654;2023-08-20T09:38:54;29.50;99.90
5683;DHT22;2864;49.220;8.654;2023-08-20T09:41:22;29.60;99.90
5683;DHT22;2864;49.220;8.654;2023-08-20T09:43:48;29.80;99.90
5683;DHT22;2864;49.220;8.654;2023-08-20T09:46:19;29.90;99.90
5683;DHT22;2864;49.220;8.654;2023-08-20T09:48:48;29.80;99.90
5683;DHT22;2864;49.220;8.654;2023-08-20T09:51:19;29.80;99.90
5683;DHT22;2864;49.220;8.654;2023-08-20T09:53:53;29.80;99.90
5683;DHT22;2864;49.220;8.654;2023-08-20T09:56:27;29.80;99.90
5683;DHT22;2864;49.220;8.654;2023-08-20T09:59:00;29.90;99.90
5683;DHT22;2864;49.220;8.654;2023-08-20T10:01:27;29.90;99.90
5683;DHT22;2864;49.220;8.654;2023-08-20T10:03:53;30.00;99.90
5683;DHT22;2864;49.220;8.654;2023-08-20T10:06:20;30.30;99.90
5683;DHT22;2864;49.220;8.654;2023-08-20T10:08:46;30.10;99.90
5683;DHT22;2864;49.220;8.654;2023-08-20T10:11:12;30.20;99.90
5683;DHT22;2864;49.220;8.654;2023-08-20T10:13:38;30.50;99.90
5683;DHT22;2864;49.220;8.654;2023-08-20T10:16:04;30.60;99.90
5683;DHT22;2864;49.220;8.654;2023-08-20T10:18:30;30.50;99.90
5683;DHT22;2864;49.220;8.654;2023-08-20T10:20:58;30.50;99.90
5683;DHT22;2864;49.220;8.654;2023-08-20T10:23:24;30.60;99.90
5683;DHT22;2864;49.220;8.654;2023-08-20T10:25:52;30.80;99.90
5683;DHT22;2864;49.220;8.654;2023-08-20T10:28:27;31.10;99.90
5683;DHT22;2864;49.220;8.654;2023-08-20T10:31:11;31.20;99.90
5683;DHT22;2864;49.220;8.654;2023-08-20T10:33:48;31.40;99.80
5683;DHT22;2864;49.220;8.654;2023-08-20T10:36:16;31.40;99.40
5683;DHT22;2864;49.220;8.654;2023-08-20T10:38:45;31.60;98.20
5683;DHT22;2864;49.220;8.654;2023-08-20T10:41:11;31.70;98.90
5683;DHT22;2864;49.220;8.654;2023-08-20T10:43:38;31.90;97.60
5683;DHT22;2864;49.220;8.654;2023-08-20T10:48:39;32.20;95.10
5683;DHT22;2864;49.220;8.654;2023-08-20T10:51:13;32.10;95.10
5683;DHT22;2864;49.220;8.654;2023-08-20T10:53:41;32.20;95.90
5683;DHT22;2864;49.220;8.654;2023-08-20T10:56:08;32.20;95.20
5683;DHT22;2864;49.220;8.654;2023-08-20T10:58:34;31.80;95.00
5683;DHT22;2864;49.220;8.654;2023-08-20T11:01:21;31.90;95.10
5683;DHT22;2864;49.220;8.654;2023-08-20T11:03:49;32.50;94.20
5683;DHT22;2864;49.220;8.654;2023-08-20T11:06:16;32.70;93.40
5683;DHT22;2864;49.220;8.654;2023-08-20T11:08:42;33.00;93.00
5683;DHT22;2864;49.220;8.654;2023-08-20T11:11:08;33.10;92.40
5683;DHT22;2864;49.220;8.654;2023-08-20T11:13:35;33.10;92.20
5683;DHT22;2864;49.220;8.654;2023-08-20T11:16:05;33.30;92.60
5683;DHT22;2864;49.220;8.654;2023-08-20T11:18:34;33.60;92.10
5683;DHT22;2864;49.220;8.654;2023-08-20T11:21:00;33.60;90.40
5683;DHT22;2864;49.220;8.654;2023-08-20T11:23:26;33.70;90.40
5683;DHT22;2864;49.220;8.654;2023-08-20T11:25:53;33.60;91.10
5683;DHT22;2864;49.220;8.654;2023-08-20T11:28:19;33.90;89.90
5683;DHT22;2864;49.220;8.654;2023-08-20T11:30:46;33.80;87.60
5683;DHT22;2864;49.220;8.654;2023-08-20T11:33:11;33.50;89.00
5683;DHT22;2864;49.220;8.654;2023-08-20T11:35:37;33.60;88.50
5683;DHT22;2864;49.220;8.654;2023-08-20T11:38:03;33.70;88.10
5683;DHT22;2864;49.220;8.654;2023-08-20T11:40:29;34.00;88.70
5683;DHT22;2864;49.220;8.654;2023-08-20T11:42:55;34.20;88.10
5683;DHT22;2864;49.220;8.654;2023-08-20T11:45:20;34.70;86.00
5683;DHT22;2864;49.220;8.654;2023-08-20T11:47:46;34.50;84.50
5683;DHT22;2864;49.220;8.654;2023-08-20T11:50:12;34.60;84.90
5683;DHT22;2864;49.220;8.654;2023-08-20T11:52:38;34.60;86.20
5683;DHT22;2864;49.220;8.654;2023-08-20T11:55:07;34.60;84.20
5683;DHT22;2864;49.220;8.654;2023-08-20T11:57:34;34.60;84.20
5683;DHT22;2864;49.220;8.654;2023-08-20T12:00:04;34.40;84.00
5683;DHT22;2864;49.220;8.654;2023-08-20T12:02:31;34.60;83.20
5683;DHT22;2864;49.220;8.654;2023-08-20T12:04:57;35.10;83.10
5683;DHT22;2864;49.220;8.654;2023-08-20T12:07:26;35.50;81.80
5683;DHT22;2864;49.220;8.654;2023-08-20T12:09:53;35.40;80.60
5683;DHT22;2864;49.220;8.654;2023-08-20T12:12:20;35.20;80.20
5683;DHT22;2864;49.220;8.654;2023-08-20T12:14:46;35.20;80.00
5683;DHT22;2864;49.220;8.654;2023-08-20T12:17:12;35.50;80.00
5683;DHT22;2864;49.220;8.654;2023-08-20T12:19:37;35.70;79.30
5683;DHT22;2864;49.220;8.654;2023-08-20T12:22:03;35.80;78.50
5683;DHT22;2864;49.220;8.654;2023-08-20T12:24:29;36.20;79.00
5683;DHT22;2864;49.220;8.654;2023-08-20T12:26:55;36.30;77.90
5683;DHT22;2864;49.220;8.654;2023-08-20T12:29:20;36.30;77.00
5683;DHT22;2864;49.220;8.654;2023-08-20T12:31:46;36.20;75.70
5683;DHT22;2864;49.220;8.654;2023-08-20T12:34:12;36.40;75.30
5683;DHT22;2864;49.220;8.654;2023-08-20T12:36:37;36.50;78.00
5683;DHT22;2864;49.220;8.654;2023-08-20T12:39:04;36.60;76.50
5683;DHT22;2864;49.220;8.654;2023-08-20T12:41:30;36.80;76.20
5683;DHT22;2864;49.220;8.654;2023-08-20T12:43:57;36.50;75.60
5683;DHT22;2864;49.220;8.654;2023-08-20T12:46:22;36.50;73.50
5683;DHT22;2864;49.220;8.654;2023-08-20T12:48:48;36.20;73.60
5683;DHT22;2864;49.220;8.654;2023-08-20T12:51:13;35.90;74.60
5683;DHT22;2864;49.220;8.654;2023-08-20T12:53:42;36.60;73.10
5683;DHT22;2864;49.220;8.654;2023-08-20T12:56:08;37.00;72.80
5683;DHT22;2864;49.220;8.654;2023-08-20T12:58:33;37.00;72.30
5683;DHT22;2864;49.220;8.654;2023-08-20T13:00:59;37.50;73.90
5683;DHT22;2864;49.220;8.654;2023-08-20T13:03:24;38.10;70.60
5683;DHT22;2864;49.220;8.654;2023-08-20T13:05:50;38.40;69.60
5683;DHT22;2864;49.220;8.654;2023-08-20T13:08:16;38.40;69.20
5683;DHT22;2864;49.220;8.654;2023-08-20T13:10:45;38.30;69.40
5683;DHT22;2864;49.220;8.654;2023-08-20T13:13:16;38.70;69.10
5683;DHT22;2864;49.220;8.654;2023-08-20T13:15:43;39.20;69.90
5683;DHT22;2864;49.220;8.654;2023-08-20T13:18:11;39.60;67.40
5683;DHT22;2864;49.220;8.654;2023-08-20T13:20:39;39.90;67.10
5683;DHT22;2864;49.220;8.654;2023-08-20T13:23:05;39.30;65.90
5683;DHT22;2864;49.220;8.654;2023-08-20T13:25:30;39.60;66.10
5683;DHT22;2864;49.220;8.654;2023-08-20T13:27:56;39.30;66.60
5683;DHT22;2864;49.220;8.654;2023-08-20T13:30:22;40.20;65.00
5683;DHT22;2864;49.220;8.654;2023-08-20T13:32:47;40.50;64.70
5683;DHT22;2864;49.220;8.654;2023-08-20T13:35:13;40.50;63.50
5683;DHT22;2864;49.220;8.654;2023-08-20T13:37:39;40.80;63.30
5683;DHT22;2864;49.220;8.654;2023-08-20T13:40:05;40.40;63.00
5683;DHT22;2864;49.220;8.654;2023-08-20T13:42:33;40.50;63.20
5683;DHT22;2864;49.220;8.654;2023-08-20T13:44:59;40.10;63.20
5683;DHT22;2864;49.220;8.654;2023-08-20T13:47:24;40.40;63.80
5683;DHT22;2864;49.220;8.654;2023-08-20T13:49:50;41.10;63.00
5683;DHT22;2864;49.220;8.654;2023-08-20T13:52:16;41.40;61.90
5683;DHT22;2864;49.220;8.654;2023-08-20T13:54:41;42.20;61.30
5683;DHT22;2864;49.220;8.654;2023-08-20T13:57:07;42.00;60.20
5683;DHT22;2864;49.220;8.654;2023-08-20T13:59:32;42.30;60.50
5683;DHT22;2864;49.220;8.654;2023-08-20T14:01:58;42.50;60.40
5683;DHT22;2864;49.220;8.654;2023-08-20T14:04:24;42.20;60.80
5683;DHT22;2864;49.220;8.654;2023-08-20T14:06:49;42.70;59.70
5683;DHT22;2864;49.220;8.654;2023-08-20T14:09:15;42.80;59.10
5683;DHT22;2864;49.220;8.654;2023-08-20T14:11:43;42.20;59.50
5683;DHT22;2864;49.220;8.654;2023-08-20T14:14:09;42.40;59.70
5683;DHT22;2864;49.220;8.654;2023-08-20T14:16:34;42.50;59.00
5683;DHT22;2864;49.220;8.654;2023-08-20T14:19:00;42.80;58.60
5683;DHT22;2864;49.220;8.654;2023-08-20T14:21:26;41.80;58.80
5683;DHT22;2864;49.220;8.654;2023-08-20T14:23:51;41.70;59.30
5683;DHT22;2864;49.220;8.654;2023-08-20T14:26:18;42.50;58.20
5683;DHT22;2864;49.220;8.654;2023-08-20T14:28:44;42.60;58.40
5683;DHT22;2864;49.220;8.654;2023-08-20T14:31:10;42.00;58.80
5683;DHT22;2864;49.220;8.654;2023-08-20T14:33:35;42.70;57.90
5683;DHT22;2864;49.220;8.654;2023-08-20T14:36:01;42.10;57.90
5683;DHT22;2864;49.220;8.654;2023-08-20T14:38:28;42.00;58.70
5683;DHT22;2864;49.220;8.654;2023-08-20T14:40:58;42.20;58.30
5683;DHT22;2864;49.220;8.654;2023-08-20T14:43:24;42.10;58.40
5683;DHT22;2864;49.220;8.654;2023-08-20T14:45:49;42.50;57.40
5683;DHT22;2864;49.220;8.654;2023-08-20T14:48:14;42.50;57.10
5683;DHT22;2864;49.220;8.654;2023-08-20T14:50:40;41.90;57.80
5683;DHT22;2864;49.220;8.654;2023-08-20T14:53:06;41.90;58.10
5683;DHT22;2864;49.220;8.654;2023-08-20T14:55:31;42.20;57.80
5683;DHT22;2864;49.220;8.654;2023-08-20T14:57:57;42.30;57.80
5683;DHT22;2864;49.220;8.654;2023-08-20T15:00:22;42.90;57.50
5683;DHT22;2864;49.220;8.654;2023-08-20T15:02:49;42.90;57.10
5683;DHT22;2864;49.220;8.654;2023-08-20T15:05:14;42.70;56.80
5683;DHT22;2864;49.220;8.654;2023-08-20T15:07:40;42.70;57.00
5683;DHT22;2864;49.220;8.654;2023-08-20T15:10:06;42.70;56.80
5683;DHT22;2864;49.220;8.654;2023-08-20T15:12:38;41.50;57.40
5683;DHT22;2864;49.220;8.654;2023-08-20T15:15:04;40.40;58.20
5683;DHT22;2864;49.220;8.654;2023-08-20T15:17:31;40.10;58.50
5683;DHT22;2864;49.220;8.654;2023-08-20T15:19:59;40.70;58.50
5683;DHT22;2864;49.220;8.654;2023-08-20T15:22:25;41.10;58.20
5683;DHT22;2864;49.220;8.654;2023-08-20T15:24:51;40.90;58.30
5683;DHT22;2864;49.220;8.654;2023-08-20T15:27:17;41.70;57.90
5683;DHT22;2864;49.220;8.654;2023-08-20T15:29:43;42.10;57.70
5683;DHT22;2864;49.220;8.654;2023-08-20T15:32:09;42.00;57.10
5683;DHT22;2864;49.220;8.654;2023-08-20T15:34:34;42.10;56.80
5683;DHT22;2864;49.220;8.654;2023-08-20T15:37:00;41.90;56.70
5683;DHT22;2864;49.220;8.654;2023-08-20T15:39:26;42.20;57.00
5683;DHT22;2864;49.220;8.654;2023-08-20T15:41:51;42.40;57.40
5683;DHT22;2864;49.220;8.654;2023-08-20T15:44:17;42.30;57.10
5683;DHT22;2864;49.220;8.654;2023-08-20T15:46:42;42.40;56.80
5683;DHT22;2864;49.220;8.654;2023-08-20T15:49:08;42.70;56.60
5683;DHT22;2864;49.220;8.654;2023-08-20T15:51:34;43.30;55.90
5683;DHT22;2864;49.220;8.654;2023-08-20T15:54:01;43.50;55.80
5683;DHT22;2864;49.220;8.654;2023-08-20T15:56:28;42.70;56.10
5683;DHT22;2864;49.220;8.654;2023-08-20T15:58:53;41.20;57.30
5683;DHT22;2864;49.220;8.654;2023-08-20T16:01:19;40.60;57.70
5683;DHT22;2864;49.220;8.654;2023-08-20T16:03:44;40.10;58.30
5683;DHT22;2864;49.220;8.654;2023-08-20T16:06:10;40.00;58.20
5683;DHT22;2864;49.220;8.654;2023-08-20T16:08:36;39.10;59.10
5683;DHT22;2864;49.220;8.654;2023-08-20T16:11:02;39.00;59.00